Time;durP1;ratioP1;P1;durP2;ratioP2;P2;SDS_P1;SDS_P2;PMS_P1;PMS_P2;Temp;Humidity;BMP_temperature;BMP_pressure;BME280_temperature;BME280_humidity;BME280_pressure;Samples;Min_cycle;Max_cycle;Signal;HPM_P1;HPM_P2
2021/03/30 00:01:53;;;;;;;4.40;3.00;;;7.60;59.80;;;;;;5072666;28;20238;-90
2021/03/30 00:04:20;;;;;;;5.63;2.60;;;7.50;59.30;;;;;;5066356;28;20205;-89
2021/03/30 00:06:46;;;;;;;4.10;2.50;;;7.50;59.50;;;;;;5070590;28;20239;-90
2021/03/30 00:09:13;;;;;;;4.30;3.17;;;7.40;59.50;;;;;;5073930;28;20225;-91
2021/03/30 00:11:39;;;;;;;6.10;2.80;;;7.40;59.70;;;;;;5074113;28;20308;-91
2021/03/30 00:14:07;;;;;;;4.03;2.60;;;7.30;59.30;;;;;;5063188;28;20189;-91
2021/03/30 00:16:33;;;;;;;4.93;2.83;;;7.40;59.60;;;;;;5052819;28;20222;-91
2021/03/30 00:19:00;;;;;;;4.60;3.00;;;7.40;59.60;;;;;;5052131;28;20204;-91
2021/03/30 00:21:26;;;;;;;4.43;2.70;;;7.40;59.50;;;;;;5062959;28;20221;-91
2021/03/30 00:23:53;;;;;;;7.13;3.03;;;7.40;59.30;;;;;;5071814;28;20201;-91
2021/03/30 00:26:19;;;;;;;6.33;2.53;;;7.40;59.50;;;;;;5062380;28;20230;-91
2021/03/30 00:28:46;;;;;;;6.73;2.60;;;7.30;59.40;;;;;;5068459;28;20715;-91
2021/03/30 00:31:13;;;;;;;6.47;3.00;;;7.30;60.60;;;;;;5062247;28;20236;-91
2021/03/30 00:33:40;;;;;;;4.40;2.60;;;7.20;60.80;;;;;;5065402;28;20209;-91
2021/03/30 00:36:07;;;;;;;6.17;2.83;;;7.20;60.90;;;;;;5066096;28;20217;-91
2021/03/30 00:38:34;;;;;;;5.13;2.67;;;7.20;60.50;;;;;;5066215;28;20228;-91
2021/03/30 00:41:00;;;;;;;4.80;2.80;;;7.20;60.50;;;;;;5050792;28;20217;-91
2021/03/30 00:43:29;;;;;;;5.43;2.73;;;7.20;60.80;;;;;;5064546;28;20218;-91
2021/03/30 00:45:56;;;;;;;5.33;2.50;;;7.20;60.60;;;;;;5065279;28;20229;-91
2021/03/30 00:48:25;;;;;;;3.27;2.53;;;7.10;61.00;;;;;;5066764;28;20256;-92
2021/03/30 00:50:52;;;;;;;3.50;2.40;;;7.10;61.10;;;;;;5067227;28;20225;-91
2021/03/30 00:53:18;;;;;;;2.80;2.47;;;7.00;61.50;;;;;;5055912;28;20694;-91
2021/03/30 00:55:45;;;;;;;3.10;2.60;;;7.00;61.80;;;;;;5063256;28;20233;-92
2021/03/30 00:58:12;;;;;;;5.70;2.77;;;6.90;62.20;;;;;;5069307;28;20209;-91
2021/03/30 01:00:38;;;;;;;4.63;2.60;;;6.90;62.50;;;;;;5053054;28;20226;-89
2021/03/30 01:03:05;;;;;;;4.37;2.70;;;6.80;65.10;;;;;;5062077;28;20252;-90
2021/03/30 01:05:33;;;;;;;5.87;2.73;;;6.80;64.20;;;;;;5063329;28;20695;-90
2021/03/30 01:08:11;;;;;;;6.33;2.40;;;6.80;63.30;;;;;;5069742;28;20204;-89
2021/03/30 01:10:44;;;;;;;5.17;2.50;;;6.90;63.40;;;;;;5063614;28;20236;-90
2021/03/30 01:13:24;;;;;;;3.17;2.57;;;6.90;63.20;;;;;;5064421;28;20246;-88
2021/03/30 01:15:59;;;;;;;4.87;2.47;;;6.90;63.20;;;;;;5055227;28;20239;-88
2021/03/30 01:18:29;;;;;;;4.47;2.60;;;6.80;62.90;;;;;;5064289;28;20205;-89
2021/03/30 01:21:37;;;;;;;9.00;3.00;;;6.80;63.90;;;;;;5052925;28;20232;-89
2021/03/30 01:24:12;;;;;;;4.33;2.27;;;6.80;63.90;;;;;;5053900;28;20667;-89
2021/03/30 01:26:49;;;;;;;3.20;2.40;;;6.80;63.30;;;;;;5060214;28;20513;-90
2021/03/30 01:29:38;;;;;;;3.53;2.50;;;6.70;64.10;;;;;;5060982;28;20714;-88
2021/03/30 01:32:08;;;;;;;4.77;2.73;;;6.70;64.70;;;;;;5055187;28;20230;-92
2021/03/30 01:34:36;;;;;;;4.90;2.33;;;6.60;65.00;;;;;;5056370;28;20212;-91
2021/03/30 01:37:04;;;;;;;4.43;2.83;;;6.60;64.70;;;;;;5052696;28;20566;-90
2021/03/30 01:39:32;;;;;;;4.83;2.70;;;6.60;64.60;;;;;;5055645;28;20225;-88
2021/03/30 01:41:59;;;;;;;5.27;2.67;;;6.60;65.80;;;;;;5059579;28;20221;-89
2021/03/30 01:44:29;;;;;;;3.80;2.53;;;6.50;65.40;;;;;;5065825;28;20197;-90
2021/03/30 01:46:56;;;;;;;4.00;2.40;;;6.50;65.10;;;;;;5064383;28;20246;-90
2021/03/30 01:49:24;;;;;;;3.53;2.47;;;6.50;65.00;;;;;;5063725;28;20254;-89
2021/03/30 01:51:52;;;;;;;5.00;2.70;;;6.50;65.50;;;;;;5067346;28;20232;-90
2021/03/30 01:54:21;;;;;;;3.57;2.60;;;6.60;65.40;;;;;;5057468;28;20239;-88
2021/03/30 01:56:51;;;;;;;3.70;2.60;;;6.60;67.80;;;;;;5061813;28;20232;-89
2021/03/30 01:59:18;;;;;;;3.07;2.40;;;6.50;66.40;;;;;;5057928;28;20565;-89
2021/03/30 02:01:47;;;;;;;4.57;2.73;;;6.50;66.00;;;;;;5063216;28;20236;-88
2021/03/30 02:04:14;;;;;;;4.23;2.43;;;6.40;66.60;;;;;;5065132;28;20194;-89
2021/03/30 02:06:44;;;;;;;3.33;2.57;;;6.40;67.40;;;;;;5062459;28;20225;-90
2021/03/30 02:09:17;;;;;;;7.23;2.73;;;6.30;68.60;;;;;;5053333;28;20252;-89
2021/03/30 02:11:47;;;;;;;7.77;3.00;;;6.40;67.90;;;;;;5061854;28;20233;-90
2021/03/30 02:14:14;;;;;;;4.70;3.00;;;6.40;67.50;;;;;;5062962;28;20204;-89
2021/03/30 02:16:48;;;;;;;5.13;2.83;;;6.30;68.30;;;;;;5061024;28;20227;-88
2021/03/30 02:19:18;;;;;;;4.17;3.00;;;6.30;67.30;;;;;;5064427;28;20205;-89
2021/03/30 02:21:47;;;;;;;4.40;2.63;;;6.30;68.30;;;;;;5070920;28;20298;-89
2021/03/30 02:24:14;;;;;;;3.50;2.67;;;6.30;67.50;;;;;;5060931;28;20206;-89
2021/03/30 02:26:45;;;;;;;4.03;2.70;;;6.20;67.80;;;;;;5067375;28;20221;-89
2021/03/30 02:29:17;;;;;;;4.57;2.63;;;6.20;68.00;;;;;;5062561;28;20242;-89
2021/03/30 02:31:44;;;;;;;4.07;2.60;;;6.20;68.90;;;;;;5069680;28;20228;-89
2021/03/30 02:34:14;;;;;;;6.17;2.80;;;6.20;69.40;;;;;;5064311;28;20201;-90
2021/03/30 02:36:42;;;;;;;4.03;2.60;;;6.20;70.00;;;;;;5068957;28;20233;-89
2021/03/30 02:39:12;;;;;;;6.20;2.97;;;6.20;68.10;;;;;;5061927;28;20256;-88
2021/03/30 02:41:40;;;;;;;4.53;2.50;;;6.20;68.20;;;;;;5062205;28;20229;-89
2021/03/30 02:44:10;;;;;;;4.63;3.13;;;6.10;70.00;;;;;;5061456;28;20197;-89
2021/03/30 02:46:39;;;;;;;4.60;2.40;;;6.10;70.90;;;;;;5041959;28;20234;-88
2021/03/30 02:49:06;;;;;;;5.20;2.80;;;6.10;70.90;;;;;;5056705;28;20225;-88
2021/03/30 02:51:34;;;;;;;4.90;2.53;;;6.10;72.40;;;;;;5057611;28;20308;-87
2021/03/30 02:54:01;;;;;;;2.77;2.13;;;6.10;69.30;;;;;;5052439;28;20583;-88
2021/03/30 02:56:28;;;;;;;5.47;3.00;;;6.10;70.90;;;;;;5056834;28;20225;-88
2021/03/30 02:58:55;;;;;;;4.40;2.53;;;6.00;69.50;;;;;;5062656;28;20198;-87
2021/03/30 03:01:22;;;;;;;3.70;2.80;;;5.90;70.60;;;;;;5038391;28;20545;-87
2021/03/30 03:03:51;;;;;;;4.70;2.10;;;5.90;69.80;;;;;;5074937;28;20205;-88
2021/03/30 03:06:18;;;;;;;3.00;2.37;;;5.90;70.70;;;;;;5060305;28;20229;-88
2021/03/30 03:08:46;;;;;;;3.87;2.27;;;5.90;70.70;;;;;;5072463;28;20227;-87
2021/03/30 03:11:15;;;;;;;3.20;2.37;;;5.90;70.70;;;;;;5037139;28;20230;-87
2021/03/30 03:13:43;;;;;;;6.37;2.50;;;5.90;70.10;;;;;;5037061;28;20206;-85
2021/03/30 03:16:12;;;;;;;5.33;2.43;;;5.80;70.60;;;;;;5052481;28;20228;-88
2021/03/30 03:18:40;;;;;;;2.30;2.10;;;5.70;70.40;;;;;;5077360;28;20201;-87
2021/03/30 03:21:08;;;;;;;4.30;2.30;;;5.70;70.40;;;;;;5058669;28;20260;-88
2021/03/30 03:23:37;;;;;;;4.07;2.30;;;5.70;70.40;;;;;;5065970;28;20679;-89
2021/03/30 03:26:05;;;;;;;2.97;2.67;;;5.60;70.40;;;;;;5045180;28;20232;-89
2021/03/30 03:28:31;;;;;;;2.73;2.30;;;5.60;70.40;;;;;;5064854;28;20228;-88
2021/03/30 03:30:58;;;;;;;5.67;2.83;;;5.50;70.30;;;;;;5062914;28;20341;-88
2021/03/30 03:33:24;;;;;;;5.87;2.47;;;5.40;70.20;;;;;;5063140;28;20394;-88
2021/03/30 03:36:01;;;;;;;3.90;2.60;;;5.50;70.30;;;;;;5049177;28;20218;-88
2021/03/30 03:38:27;;;;;;;2.67;2.20;;;5.50;70.30;;;;;;5052289;28;20228;-88
2021/03/30 03:40:54;;;;;;;4.73;2.33;;;5.50;70.30;;;;;;5076844;28;20244;-87
2021/03/30 03:43:21;;;;;;;4.53;2.60;;;5.60;71.80;;;;;;5058033;28;20204;-88
2021/03/30 03:45:48;;;;;;;2.90;2.20;;;5.60;70.40;;;;;;5056515;28;20222;-86
2021/03/30 03:48:14;;;;;;;7.17;2.50;;;5.60;70.40;;;;;;5057272;28;20201;-88
2021/03/30 03:50:41;;;;;;;3.97;2.53;;;5.50;70.30;;;;;;5072720;28;20229;-88
2021/03/30 03:53:11;;;;;;;7.73;2.70;;;5.50;70.30;;;;;;5075167;28;20196;-86
2021/03/30 03:55:41;;;;;;;3.70;2.50;;;5.50;70.30;;;;;;5076713;28;20229;-88
2021/03/30 03:58:09;;;;;;;2.90;2.40;;;5.40;70.10;;;;;;5075346;28;20206;-87
2021/03/30 04:00:36;;;;;;;5.30;2.70;;;5.30;70.00;;;;;;5075947;28;20221;-86
2021/03/30 04:03:08;;;;;;;4.00;2.33;;;5.30;70.10;;;;;;5077054;28;20205;-86
2021/03/30 04:05:40;;;;;;;4.83;2.20;;;5.30;71.50;;;;;;5076358;28;20294;-86
2021/03/30 04:08:11;;;;;;;3.87;2.43;;;5.20;72.60;;;;;;5076491;28;20691;-85
2021/03/30 04:10:41;;;;;;;4.80;2.57;;;5.10;72.70;;;;;;5076281;28;20231;-86
2021/03/30 04:13:10;;;;;;;3.27;2.30;;;5.10;72.70;;;;;;5077070;28;20190;-86
2021/03/30 04:15:38;;;;;;;3.60;2.50;;;5.20;74.40;;;;;;5075009;28;20221;-86
2021/03/30 04:18:06;;;;;;;4.53;2.50;;;5.30;74.50;;;;;;5076639;28;20198;-86
2021/03/30 04:20:33;;;;;;;4.40;2.17;;;5.30;73.40;;;;;;5076349;28;20229;-86
2021/03/30 04:23:00;;;;;;;6.63;2.53;;;5.40;73.50;;;;;;5046608;28;20206;-86
2021/03/30 04:25:27;;;;;;;5.17;2.73;;;5.30;71.60;;;;;;5035848;28;20241;-86
2021/03/30 04:27:54;;;;;;;5.13;2.47;;;5.20;72.70;;;;;;5036124;28;20201;-86
2021/03/30 04:30:21;;;;;;;3.60;2.43;;;5.20;71.30;;;;;;5033720;28;20240;-86
2021/03/30 04:32:49;;;;;;;9.63;2.60;;;5.20;71.80;;;;;;5045454;28;20201;-85
2021/03/30 04:35:15;;;;;;;4.27;2.53;;;5.30;71.50;;;;;;5076887;28;20235;-85
2021/03/30 04:37:42;;;;;;;4.93;2.40;;;5.30;72.00;;;;;;5081522;28;20197;-86
2021/03/30 04:40:11;;;;;;;5.07;2.60;;;5.30;71.80;;;;;;5081687;28;20252;-87
2021/03/30 04:42:38;;;;;;;4.70;2.67;;;5.20;71.50;;;;;;5082366;28;20205;-87
2021/03/30 04:45:06;;;;;;;3.77;2.60;;;5.10;72.10;;;;;;5081996;28;20594;-87
2021/03/30 04:47:33;;;;;;;6.07;2.53;;;5.00;73.80;;;;;;5080731;28;20200;-87
2021/03/30 04:50:00;;;;;;;3.00;2.43;;;5.00;73.30;;;;;;5079183;28;20227;-87
2021/03/30 04:52:26;;;;;;;6.50;3.87;;;5.00;72.10;;;;;;5078099;28;20223;-87
2021/03/30 04:54:53;;;;;;;4.70;2.70;;;5.00;73.10;;;;;;5060040;28;20193;-87
2021/03/30 04:57:19;;;;;;;4.77;2.50;;;4.90;76.20;;;;;;5060210;28;20645;-87
2021/03/30 04:59:46;;;;;;;3.33;2.50;;;4.90;75.40;;;;;;5056937;28;20209;-87
2021/03/30 05:02:12;;;;;;;6.00;2.63;;;5.00;74.70;;;;;;5058007;28;20213;-87
2021/03/30 05:04:38;;;;;;;6.37;2.50;;;5.00;74.50;;;;;;5060652;28;20198;-87
2021/03/30 05:07:07;;;;;;;4.03;2.30;;;5.10;75.00;;;;;;5058985;28;20260;-87
2021/03/30 05:09:33;;;;;;;4.87;2.73;;;5.10;75.10;;;;;;5073126;28;20217;-87
2021/03/30 05:11:59;;;;;;;6.67;2.77;;;5.10;75.20;;;;;;5079167;28;20692;-87
2021/03/30 05:14:26;;;;;;;3.73;2.40;;;5.10;74.50;;;;;;5065900;28;20315;-87
2021/03/30 05:16:52;;;;;;;5.60;2.60;;;5.10;74.40;;;;;;5059781;28;20280;-87
2021/03/30 05:19:19;;;;;;;5.43;2.60;;;5.10;73.60;;;;;;5059238;28;20214;-87
2021/03/30 05:21:45;;;;;;;7.30;2.50;;;5.10;73.60;;;;;;5059331;28;20239;-87
2021/03/30 05:24:12;;;;;;;4.77;2.50;;;5.10;73.60;;;;;;5061244;28;20198;-87
2021/03/30 05:26:39;;;;;;;6.43;2.80;;;5.10;75.60;;;;;;5059044;28;20597;-86
2021/03/30 05:29:05;;;;;;;5.43;2.57;;;5.10;76.00;;;;;;5062625;28;20225;-85
2021/03/30 05:31:31;;;;;;;7.03;2.57;;;5.20;74.60;;;;;;5061966;28;20574;-86
2021/03/30 05:37:20;;;;;;;6.43;2.60;;;5.50;73.40;;;;;;5056164;28;20201;-85
2021/03/30 05:39:47;;;;;;;4.87;3.00;;;5.50;71.70;;;;;;5052682;28;20237;-88
2021/03/30 05:42:15;;;;;;;4.53;2.90;;;5.60;72.10;;;;;;5038820;28;20275;-85
2021/03/30 05:44:42;;;;;;;11.63;3.00;;;5.60;72.30;;;;;;5051527;28;20576;-85
2021/03/30 05:47:14;;;;;;;5.13;2.87;;;5.70;73.00;;;;;;5058247;28;20686;-85
2021/03/30 05:49:41;;;;;;;13.10;3.60;;;5.70;70.50;;;;;;5059847;28;20236;-85
2021/03/30 05:52:13;;;;;;;11.20;4.60;;;5.80;70.90;;;;;;5058095;28;20252;-87
2021/03/30 05:54:42;;;;;;;7.90;3.20;;;5.80;71.60;;;;;;5058031;28;20186;-85
2021/03/30 05:57:14;;;;;;;16.77;3.60;;;5.80;73.60;;;;;;5058083;28;20226;-85
2021/03/30 05:59:43;;;;;;;9.43;2.90;;;5.90;73.10;;;;;;5058886;28;20221;-85
2021/03/30 06:02:19;;;;;;;13.83;3.07;;;6.00;70.80;;;;;;5044199;28;20262;-85
2021/03/30 06:04:47;;;;;;;6.60;2.70;;;5.90;72.60;;;;;;5038183;28;20648;-85
2021/03/30 06:07:14;;;;;;;8.83;3.20;;;6.00;73.50;;;;;;5038040;28;20211;-85
2021/03/30 06:09:43;;;;;;;6.93;3.07;;;6.00;73.10;;;;;;5037569;28;20233;-85
2021/03/30 06:12:14;;;;;;;8.40;3.03;;;6.10;74.10;;;;;;5054513;28;20594;-85
2021/03/30 06:14:42;;;;;;;12.33;3.50;;;6.10;73.60;;;;;;5078799;28;20197;-87
2021/03/30 06:17:09;;;;;;;10.53;3.60;;;6.30;72.10;;;;;;5077608;28;20244;-87
2021/03/30 06:19:54;;;;;;;12.50;3.50;;;6.30;72.00;;;;;;5079178;28;20246;-87
2021/03/30 06:22:22;;;;;;;13.33;3.70;;;6.40;71.20;;;;;;5040489;28;20214;-87
2021/03/30 06:24:51;;;;;;;15.10;3.53;;;6.60;71.40;;;;;;5041394;28;20203;-87
2021/03/30 06:27:33;;;;;;;11.43;4.03;;;6.80;71.60;;;;;;5043214;28;20198;-87
2021/03/30 06:30:00;;;;;;;8.35;3.20;;;7.60;67.40;;;;;;5082950;28;20217;-87
2021/03/30 06:32:28;;;;;;;10.40;2.92;;;9.60;57.20;;;;;;5073571;28;20201;-86
2021/03/30 06:35:12;;;;;;;8.52;3.17;;;11.50;48.20;;;;;;5068321;28;20198;-87
2021/03/30 06:37:40;;;;;;;9.43;3.05;;;13.20;41.90;;;;;;5069288;28;20667;-89
2021/03/30 06:40:20;;;;;;;12.27;3.75;;;14.90;37.20;;;;;;5050252;28;20230;-87
2021/03/30 06:42:50;;;;;;;8.65;3.08;;;16.60;33.40;;;;;;5050648;28;20552;-87
2021/03/30 06:45:19;;;;;;;8.10;2.95;;;17.80;30.20;;;;;;5058216;28;20268;-87
2021/03/30 06:47:47;;;;;;;9.75;2.92;;;18.90;28.50;;;;;;5058479;28;20198;-87
2021/03/30 06:50:24;;;;;;;9.27;3.22;;;19.40;25.70;;;;;;5062478;28;20248;-84
2021/03/30 06:52:51;;;;;;;11.88;3.00;;;19.40;26.50;;;;;;5066311;28;20193;-84
2021/03/30 06:55:26;;;;;;;7.75;3.08;;;19.20;26.50;;;;;;5066880;28;20222;-85
2021/03/30 06:57:59;;;;;;;10.65;3.10;;;18.70;27.40;;;;;;5066763;28;20193;-84
2021/03/30 07:00:29;;;;;;;8.35;3.25;;;18.00;28.50;;;;;;5067034;28;20256;-84
2021/03/30 07:02:58;;;;;;;12.25;3.38;;;17.80;28.50;;;;;;5066032;28;20186;-85
2021/03/30 07:05:28;;;;;;;8.45;3.40;;;17.40;28.00;;;;;;5065250;28;20237;-85
2021/03/30 07:07:56;;;;;;;7.22;3.50;;;16.20;28.90;;;;;;5064678;28;20228;-85
2021/03/30 07:10:23;;;;;;;8.13;3.75;;;15.50;30.80;;;;;;5067579;28;20229;-85
2021/03/30 07:12:50;;;;;;;10.10;3.47;;;15.30;31.50;;;;;;5068876;28;20201;-85
2021/03/30 07:15:19;;;;;;;12.68;4.57;;;15.10;32.50;;;;;;5062241;28;20308;-88
2021/03/30 07:17:56;;;;;;;9.55;3.17;;;14.60;33.20;;;;;;5041483;28;20206;-87
2021/03/30 07:20:23;;;;;;;13.25;3.58;;;14.40;35.40;;;;;;5057282;28;20236;-87
2021/03/30 07:22:52;;;;;;;11.75;3.25;;;14.20;35.50;;;;;;5058384;28;20197;-88
2021/03/30 07:25:22;;;;;;;11.05;2.95;;;14.40;34.50;;;;;;5075485;28;20249;-88
2021/03/30 07:27:53;;;;;;;7.32;3.05;;;15.10;33.60;;;;;;5077897;28;20189;-88
2021/03/30 07:30:22;;;;;;;5.47;3.20;;;16.00;30.40;;;;;;5078226;28;20312;-88
2021/03/30 07:33:02;;;;;;;8.40;2.90;;;16.70;29.30;;;;;;5079898;28;20204;-87
2021/03/30 07:35:30;;;;;;;6.70;2.88;;;16.80;29.40;;;;;;5076610;28;20687;-87
2021/03/30 07:38:03;;;;;;;8.85;3.20;;;16.40;29.00;;;;;;5076495;28;20194;-88
2021/03/30 07:40:30;;;;;;;11.38;3.50;;;15.80;31.60;;;;;;5058677;28;20283;-87
2021/03/30 07:42:58;;;;;;;15.38;4.20;;;15.30;32.50;;;;;;5058020;28;20225;-87
2021/03/30 07:45:30;;;;;;;10.45;3.60;;;15.00;32.50;;;;;;5057416;28;20236;-88
2021/03/30 07:48:01;;;;;;;20.25;3.92;;;14.90;33.50;;;;;;5056476;28;20186;-88
2021/03/30 07:50:52;;;;;;;15.93;3.60;;;14.90;33.00;;;;;;5056675;28;20287;-87
2021/03/30 07:53:48;;;;;;;17.48;3.63;;;15.30;36.60;;;;;;5067241;28;20200;-88
2021/03/30 07:57:04;;;;;;;13.52;3.80;;;15.60;34.10;;;;;;5051685;28;20284;-88
2021/03/30 07:59:48;;;;;;;11.48;4.35;;;15.40;33.80;;;;;;5073353;28;20185;-88
2021/03/30 08:02:25;;;;;;;12.57;3.80;;;15.30;35.30;;;;;;5060455;28;20210;-87
2021/03/30 08:05:10;;;;;;;24.10;4.13;;;15.10;33.00;;;;;;5057918;28;20205;-88
2021/03/30 08:07:51;;;;;;;19.35;4.15;;;15.10;33.60;;;;;;5066597;28;20538;-87
2021/03/30 08:10:25;;;;;;;18.13;4.38;;;15.40;34.00;;;;;;5084825;28;20280;-87
2021/03/30 08:13:28;;;;;;;20.00;4.65;;;15.40;32.20;;;;;;5045076;28;20198;-87
2021/03/30 08:15:56;;;;;;;14.90;4.95;;;15.50;33.40;;;;;;5072531;28;20712;-87
2021/03/30 08:18:26;;;;;;;25.60;4.68;;;16.00;33.30;;;;;;5068326;28;20208;-87
2021/03/30 08:20:59;;;;;;;12.38;4.28;;;16.10;29.60;;;;;;5055065;28;20229;-87
2021/03/30 08:23:27;;;;;;;16.00;4.32;;;16.40;30.60;;;;;;5071343;28;20209;-87
2021/03/30 08:26:15;;;;;;;15.25;4.70;;;16.60;29.20;;;;;;5073515;28;20304;-87
2021/03/30 08:28:56;;;;;;;13.70;4.28;;;16.90;29.50;;;;;;5076266;28;20191;-87
2021/03/30 08:31:25;;;;;;;16.33;4.60;;;17.30;27.90;;;;;;5037896;28;20245;-87
2021/03/30 08:33:54;;;;;;;13.07;5.22;;;17.30;27.20;;;;;;5051391;28;20687;-87
2021/03/30 08:36:24;;;;;;;9.70;4.95;;;17.40;28.00;;;;;;5062474;28;20305;-87
2021/03/30 08:38:52;;;;;;;8.10;4.50;;;17.80;25.50;;;;;;5084112;28;20240;-87
2021/03/30 08:41:51;;;;;;;14.43;4.60;;;18.00;27.10;;;;;;5069237;28;20225;-87
2021/03/30 08:44:20;;;;;;;18.20;4.70;;;18.30;25.30;;;;;;5061150;28;20198;-87
2021/03/30 08:46:48;;;;;;;15.02;4.68;;;18.10;25.40;;;;;;5053955;28;20228;-85
2021/03/30 08:49:33;;;;;;;15.60;4.70;;;18.20;26.50;;;;;;5059336;28;20270;-85
2021/03/30 08:52:02;;;;;;;11.75;3.95;;;18.40;25.30;;;;;;5057099;28;20230;-85
2021/03/30 08:54:30;;;;;;;16.35;4.22;;;18.40;24.10;;;;;;5076023;28;20336;-85
2021/03/30 08:57:02;;;;;;;9.23;3.65;;;18.90;25.00;;;;;;5085192;28;20304;-85
2021/03/30 08:59:30;;;;;;;10.98;4.10;;;19.40;23.50;;;;;;5073706;28;20208;-85
2021/03/30 09:01:57;;;;;;;11.32;4.55;;;19.80;23.80;;;;;;5066791;28;20631;-85
2021/03/30 09:04:37;;;;;;;12.18;4.13;;;20.20;23.40;;;;;;5066036;28;20219;-85
2021/03/30 09:07:04;;;;;;;6.60;3.60;;;20.80;21.80;;;;;;5062874;28;20312;-83
2021/03/30 09:09:35;;;;;;;7.97;4.20;;;22.10;19.90;;;;;;5064753;28;20229;-81
2021/03/30 09:18:46;;;;;;;9.93;4.35;;;24.50;16.70;;;;;;5082147;28;20172;-83
2021/03/30 09:21:20;;;;;;;10.02;4.80;;;25.30;16.30;;;;;;5082573;28;20233;-83
2021/03/30 09:23:47;;;;;;;14.38;5.25;;;25.30;16.30;;;;;;5081606;28;20226;-83
2021/03/30 09:26:15;;;;;;;13.85;6.22;;;25.40;15.10;;;;;;5079623;28;20248;-84
2021/03/30 09:28:44;;;;;;;14.13;7.80;;;26.60;14.90;;;;;;5080780;28;20224;-81
2021/03/30 09:31:12;;;;;;;11.52;5.30;;;27.70;15.50;;;;;;5083248;28;20293;-81
2021/03/30 09:33:39;;;;;;;11.18;5.25;;;27.90;14.90;;;;;;5084058;28;20201;-83
2021/03/30 09:36:11;;;;;;;7.88;5.80;;;28.50;13.60;;;;;;5077304;28;20236;-83
2021/03/30 09:38:49;;;;;;;7.95;5.50;;;29.30;12.60;;;;;;5061080;28;20304;-83
2021/03/30 09:41:30;;;;;;;5.93;5.20;;;29.00;12.40;;;;;;5060151;28;20289;-82
2021/03/30 09:43:57;;;;;;;10.15;4.88;;;29.30;11.50;;;;;;5062207;28;20198;-84
2021/03/30 09:46:23;;;;;;;8.25;4.80;;;29.60;11.40;;;;;;5057969;28;20227;-84
2021/03/30 09:48:49;;;;;;;9.18;5.03;;;29.80;11.10;;;;;;5059986;28;20536;-84
2021/03/30 09:51:16;;;;;;;10.05;5.70;;;29.40;11.80;;;;;;5067963;28;20228;-83
2021/03/30 09:53:42;;;;;;;9.32;4.90;;;27.40;13.50;;;;;;5072201;28;20653;-83
2021/03/30 09:56:18;;;;;;;7.68;5.07;;;27.20;13.10;;;;;;5063130;28;20260;-82
2021/03/30 09:58:45;;;;;;;10.15;5.10;;;28.10;12.50;;;;;;5063547;28;20189;-82
2021/03/30 10:01:12;;;;;;;12.73;6.30;;;28.90;12.10;;;;;;5061481;28;20579;-82
2021/03/30 10:03:38;;;;;;;9.52;5.65;;;29.50;12.50;;;;;;5060453;28;20202;-83
2021/03/30 10:06:17;;;;;;;10.23;5.35;;;29.90;10.80;;;;;;5062858;28;20316;-83
2021/03/30 10:08:44;;;;;;;7.22;5.75;;;29.40;10.80;;;;;;5062421;28;20220;-83
2021/03/30 10:11:13;;;;;;;12.98;5.60;;;29.80;11.60;;;;;;5061410;28;20209;-83
2021/03/30 10:13:41;;;;;;;11.05;5.88;;;29.60;10.20;;;;;;5061732;28;20567;-82
2021/03/30 10:16:10;;;;;;;8.32;5.20;;;29.70;10.50;;;;;;5060640;28;20229;-83
2021/03/30 10:18:38;;;;;;;11.68;6.40;;;29.50;11.20;;;;;;5061716;28;20193;-83
2021/03/30 10:21:10;;;;;;;8.98;7.03;;;28.50;11.20;;;;;;5060577;28;20708;-83
2021/03/30 10:23:41;;;;;;;10.60;6.20;;;27.90;12.20;;;;;;5061456;28;20695;-87
2021/03/30 10:26:13;;;;;;;8.52;6.72;;;28.90;11.10;;;;;;5042839;28;20551;-83
2021/03/30 10:28:39;;;;;;;6.93;5.55;;;29.10;10.20;;;;;;5046816;28;20202;-83
2021/03/30 10:31:12;;;;;;;5.88;5.15;;;29.20;10.50;;;;;;5062887;28;20229;-83
2021/03/30 10:33:41;;;;;;;10.93;5.97;;;29.40;10.00;;;;;;5065340;28;20271;-83
2021/03/30 10:36:09;;;;;;;14.82;6.72;;;29.30;10.20;;;;;;5065097;28;20225;-83
2021/03/30 10:38:36;;;;;;;7.43;6.15;;;26.40;14.90;;;;;;5065548;28;20230;-83
2021/03/30 10:41:04;;;;;;;7.65;5.53;;;25.70;14.50;;;;;;5065196;28;20312;-83
2021/03/30 10:43:32;;;;;;;6.53;5.38;;;25.00;14.90;;;;;;5064180;28;20204;-83
2021/03/30 10:45:58;;;;;;;9.38;5.60;;;26.60;14.40;;;;;;5065955;28;20664;-83
2021/03/30 10:48:25;;;;;;;8.73;5.93;;;27.60;13.00;;;;;;5067001;28;20347;-83
2021/03/30 10:50:52;;;;;;;9.02;6.30;;;27.90;12.30;;;;;;5065846;28;20231;-83
2021/03/30 10:53:19;;;;;;;6.38;5.72;;;26.00;14.60;;;;;;5066277;28;20217;-82
2021/03/30 10:55:46;;;;;;;7.00;5.72;;;26.00;15.50;;;;;;5065996;28;20233;-82
2021/03/30 10:58:14;;;;;;;8.25;5.13;;;24.80;15.60;;;;;;5068512;28;20247;-82
2021/03/30 11:00:42;;;;;;;6.13;4.70;;;24.90;16.70;;;;;;5066937;28;20229;-82
2021/03/30 11:03:09;;;;;;;8.38;5.43;;;26.00;14.70;;;;;;5046285;28;20495;-82
2021/03/30 11:05:35;;;;;;;6.38;4.90;;;24.60;15.60;;;;;;5051733;28;20304;-82
2021/03/30 11:08:02;;;;;;;7.13;4.82;;;25.10;17.40;;;;;;5068450;28;20208;-83
2021/03/30 11:10:28;;;;;;;6.78;4.70;;;26.00;14.60;;;;;;5048677;28;20232;-82
2021/03/30 11:12:54;;;;;;;8.85;4.82;;;26.30;14.80;;;;;;5047476;28;20202;-84
2021/03/30 11:15:21;;;;;;;6.10;4.82;;;25.80;14.50;;;;;;5049740;28;20260;-82
2021/03/30 11:17:48;;;;;;;8.02;5.10;;;25.30;15.80;;;;;;5050458;28;20201;-83
2021/03/30 11:20:15;;;;;;;7.65;4.75;;;24.70;16.20;;;;;;5049446;28;20234;-84
2021/03/30 11:22:43;;;;;;;10.85;6.30;;;23.80;18.30;;;;;;5050482;28;20210;-83
2021/03/30 11:25:11;;;;;;;5.65;5.03;;;23.20;19.60;;;;;;5051853;28;20261;-83
2021/03/30 11:27:39;;;;;;;9.25;4.80;;;22.90;17.80;;;;;;5081809;28;20229;-83
2021/03/30 11:30:10;;;;;;;21.77;16.55;;;22.70;17.60;;;;;;5088253;28;20220;-86
2021/03/30 11:32:47;;;;;;;8.43;5.40;;;22.60;17.90;;;;;;5086867;28;20678;-86
2021/03/30 11:35:17;;;;;;;5.45;4.35;;;22.30;18.50;;;;;;5086259;28;20299;-86
2021/03/30 11:37:49;;;;;;;11.00;6.68;;;22.40;19.10;;;;;;5084208;28;20212;-86
2021/03/30 11:40:16;;;;;;;5.28;4.40;;;22.50;19.20;;;;;;5067439;28;20229;-86
2021/03/30 11:42:43;;;;;;;8.48;4.80;;;22.40;18.60;;;;;;5067642;28;20600;-86
2021/03/30 11:45:10;;;;;;;5.00;4.50;;;21.90;17.50;;;;;;5067803;28;20208;-85
2021/03/30 11:47:37;;;;;;;10.25;5.55;;;21.70;18.70;;;;;;5071434;28;20205;-85
2021/03/30 11:50:06;;;;;;;6.40;5.05;;;21.80;18.40;;;;;;5066314;28;20225;-86
2021/03/30 11:52:33;;;;;;;10.55;4.40;;;21.70;18.60;;;;;;5068470;28;20201;-86
2021/03/30 11:55:00;;;;;;;7.15;6.03;;;21.90;18.70;;;;;;5067529;28;20197;-86
2021/03/30 11:57:27;;;;;;;9.10;4.85;;;21.70;19.60;;;;;;5068950;28;20202;-86
2021/03/30 11:59:53;;;;;;;6.70;5.38;;;21.70;19.80;;;;;;5065845;28;20201;-86
2021/03/30 12:02:20;;;;;;;8.10;4.40;;;21.90;19.80;;;;;;5048003;28;20207;-85
2021/03/30 12:04:47;;;;;;;5.55;3.80;;;21.70;19.10;;;;;;5049047;28;20211;-86
2021/03/30 12:07:13;;;;;;;5.93;3.63;;;21.40;18.40;;;;;;5048513;28;20325;-86
2021/03/30 12:09:41;;;;;;;7.85;3.42;;;21.60;18.90;;;;;;5049103;28;20278;-86
2021/03/30 12:12:08;;;;;;;9.23;3.88;;;21.30;17.90;;;;;;5069988;28;20253;-85
2021/03/30 12:14:34;;;;;;;7.72;3.53;;;21.20;18.00;;;;;;5088709;28;20199;-88
2021/03/30 12:17:01;;;;;;;6.45;3.90;;;21.30;18.20;;;;;;5087872;28;20359;-86
2021/03/30 12:19:27;;;;;;;4.45;3.40;;;21.50;18.30;;;;;;5087196;28;20270;-85
2021/03/30 12:21:54;;;;;;;7.80;5.00;;;21.50;18.20;;;;;;5087482;28;20331;-85
2021/03/30 12:24:21;;;;;;;5.82;4.82;;;21.60;18.70;;;;;;5047671;28;20199;-86
2021/03/30 12:26:48;;;;;;;5.20;4.45;;;21.50;18.50;;;;;;5048073;28;20290;-86
2021/03/30 12:29:15;;;;;;;6.80;5.30;;;21.50;18.60;;;;;;5046647;28;20226;-86
2021/03/30 12:31:42;;;;;;;8.30;3.75;;;21.60;18.30;;;;;;5047581;28;20218;-85
2021/03/30 12:34:08;;;;;;;5.30;3.30;;;21.20;17.60;;;;;;5047599;28;20242;-85
2021/03/30 12:36:35;;;;;;;7.05;3.08;;;21.20;17.40;;;;;;5045779;28;20269;-87
2021/03/30 12:39:01;;;;;;;6.35;3.30;;;21.40;17.60;;;;;;5062428;28;20640;-86
2021/03/30 12:41:28;;;;;;;4.45;2.70;;;21.60;18.30;;;;;;5085599;28;20696;-85
2021/03/30 12:43:55;;;;;;;5.18;3.22;;;21.60;17.30;;;;;;5075960;28;20277;-86
2021/03/30 12:46:21;;;;;;;5.05;3.63;;;21.40;17.60;;;;;;5067428;28;20313;-85
2021/03/30 12:48:48;;;;;;;6.53;3.78;;;21.10;17.30;;;;;;5067361;28;20240;-85
2021/03/30 12:51:15;;;;;;;12.73;5.00;;;21.20;17.70;;;;;;5066309;28;20238;-85
2021/03/30 12:53:49;;;;;;;6.38;4.45;;;21.20;18.70;;;;;;5067662;28;20197;-85
2021/03/30 12:56:15;;;;;;;6.40;4.65;;;21.00;19.70;;;;;;5066519;28;20316;-85
2021/03/30 12:58:42;;;;;;;6.60;4.13;;;21.20;19.00;;;;;;5065726;28;20209;-84
2021/03/30 13:01:09;;;;;;;5.18;3.63;;;21.40;18.20;;;;;;5066093;28;20228;-85
2021/03/30 13:03:36;;;;;;;4.05;3.10;;;21.40;17.90;;;;;;5068266;28;20262;-85
2021/03/30 13:06:02;;;;;;;7.07;3.42;;;21.20;17.60;;;;;;5066399;28;20308;-85
2021/03/30 13:08:28;;;;;;;7.70;3.88;;;21.30;17.10;;;;;;5065345;28;20210;-85
2021/03/30 13:10:55;;;;;;;4.93;3.85;;;21.40;17.10;;;;;;5073184;28;20229;-85
2021/03/30 13:13:21;;;;;;;10.25;5.22;;;21.40;17.80;;;;;;5086158;28;20232;-85